Time;durP1;ratioP1;P1;durP2;ratioP2;P2;SDS_P1;SDS_P2;PMS_P1;PMS_P2;Temp;Humidity;BMP_temperature;BMP_pressure;BME280_temperature;BME280_humidity;BME280_pressure;Samples;Min_cycle;Max_cycle;Signal;HPM_P1;HPM_P2
2023/08/12 09:50:25;;;;;;;;;;;;;;;30.53;39.18;100053.75;4971608;28;1274;-70
2023/08/12 09:52:52;;;;;;;;;;;;;;;30.25;40.07;100051.19;4973701;28;830;-67
2023/08/12 09:55:20;;;;;;;;;;;;;;;30.24;40.84;100043.97;4973540;28;839;-70
2023/08/12 09:57:52;;;;;;;;;;;;;;;30.54;39.68;100046.75;4974095;28;870;-69
2023/08/12 10:00:20;;;;;;;;;;;;;;;30.68;39.31;100048.41;4973517;28;874;-69
2023/08/12 10:02:47;;;;;;;;;;;;;;;30.39;38.45;100038.63;4972268;28;1199;-70
2023/08/12 10:05:20;;;;;;;;;;;;;;;30.42;38.95;100040.41;4973417;28;847;-68
2023/08/12 10:07:47;;;;;;;;;;;;;;;30.59;39.03;100033.72;4973644;28;1914;-68
2023/08/12 10:10:14;;;;;;;;;;;;;;;31.11;37.30;100032.53;4973640;28;863;-68
2023/08/12 10:12:41;;;;;;;;;;;;;;;31.44;37.45;100027.66;4973597;28;851;-68
2023/08/12 10:15:08;;;;;;;;;;;;;;;31.52;37.21;100032.19;4973535;28;1215;-66
2023/08/12 10:17:34;;;;;;;;;;;;;;;31.33;37.22;100035.06;4973478;28;1198;-66
2023/08/12 10:20:04;;;;;;;;;;;;;;;30.18;38.50;100026.91;4973435;28;1209;-70
2023/08/12 10:22:33;;;;;;;;;;;;;;;30.07;37.90;100027.81;4973282;28;807;-67
2023/08/12 10:25:01;;;;;;;;;;;;;;;30.69;36.44;100027.09;4973338;28;918;-70
2023/08/12 10:27:28;;;;;;;;;;;;;;;31.47;36.03;100020.84;4973333;28;1923;-69
2023/08/12 10:29:58;;;;;;;;;;;;;;;32.27;33.91;100015.31;4973216;28;875;-67
2023/08/12 10:32:25;;;;;;;;;;;;;;;32.64;33.75;100020.00;4973036;28;875;-66
2023/08/12 10:34:56;;;;;;;;;;;;;;;32.04;34.64;100023.53;4973194;28;835;-69
2023/08/12 10:37:26;;;;;;;;;;;;;;;30.68;36.64;100025.56;4973423;28;886;-71
2023/08/12 10:39:53;;;;;;;;;;;;;;;31.12;36.67;100016.97;4973033;28;810;-69
2023/08/12 10:42:38;;;;;;;;;;;;;;;31.97;35.43;100010.63;4989483;28;836;-69
2023/08/12 10:45:07;;;;;;;;;;;;;;;32.89;33.14;100014.03;4992360;28;893;-66
2023/08/12 10:47:37;;;;;;;;;;;;;;;33.46;31.62;100017.13;4992201;28;1944;-65
2023/08/12 10:50:04;;;;;;;;;;;;;;;33.49;31.41;100004.53;4992167;28;1271;-67
2023/08/12 10:52:32;;;;;;;;;;;;;;;33.81;31.06;100003.50;4992464;28;878;-69
2023/08/12 10:55:18;;;;;;;;;;;;;;;32.85;32.17;100011.50;4992273;28;879;-69
2023/08/12 10:57:45;;;;;;;;;;;;;;;31.43;33.08;100008.97;4992353;28;895;-68
2023/08/12 11:00:15;;;;;;;;;;;;;;;31.76;33.92;100009.72;4992408;28;803;-63
2023/08/12 11:02:44;;;;;;;;;;;;;;;31.85;33.34;100004.34;4992207;28;947;-65
2023/08/12 11:05:11;;;;;;;;;;;;;;;32.35;32.83;100001.88;4992590;28;870;-63
2023/08/12 11:07:50;;;;;;;;;;;;;;;32.73;31.86;100001.63;4992405;28;1910;-65
2023/08/12 11:10:17;;;;;;;;;;;;;;;31.81;32.25;99995.31;4992238;28;850;-67
2023/08/12 11:12:56;;;;;;;;;;;;;;;31.11;33.04;99996.22;4992167;28;807;-66
2023/08/12 11:15:41;;;;;;;;;;;;;;;31.44;33.04;99985.59;4992247;28;847;-67
2023/08/12 11:18:14;;;;;;;;;;;;;;;32.91;31.33;99974.16;4992359;28;842;-66
2023/08/12 11:20:41;;;;;;;;;;;;;;;33.89;29.59;99978.53;4992130;28;854;-62
2023/08/12 11:23:08;;;;;;;;;;;;;;;34.16;29.30;99972.59;4992111;28;819;-64
2023/08/12 11:25:35;;;;;;;;;;;;;;;33.91;28.76;99980.84;4994032;28;882;-62
2023/08/12 11:28:01;;;;;;;;;;;;;;;33.53;29.81;99984.91;4995996;28;1941;-62
2023/08/12 11:30:28;;;;;;;;;;;;;;;33.56;29.61;99986.69;4995622;28;991;-63
2023/08/12 11:32:56;;;;;;;;;;;;;;;32.58;29.52;99978.53;4995683;28;814;-65
2023/08/12 11:35:24;;;;;;;;;;;;;;;31.66;30.84;99983.66;4995806;28;819;-65
2023/08/12 11:37:53;;;;;;;;;;;;;;;32.48;30.88;99981.06;4995685;28;873;-65
2023/08/12 11:40:19;;;;;;;;;;;;;;;33.10;28.53;99969.06;4995464;28;870;-67
2023/08/12 11:42:47;;;;;;;;;;;;;;;33.74;27.76;99964.88;4995580;28;830;-62
2023/08/12 11:45:17;;;;;;;;;;;;;;;34.28;27.56;99968.09;4995513;28;889;-62
2023/08/12 11:47:44;;;;;;;;;;;;;;;34.53;26.85;99977.00;4995661;28;1890;-62
2023/08/12 11:50:12;;;;;;;;;;;;;;;35.13;26.68;99962.66;4995145;28;1311;-61
2023/08/12 11:52:39;;;;;;;;;;;;;;;35.51;25.76;99953.31;4995328;28;814;-63
2023/08/12 11:55:06;;;;;;;;;;;;;;;36.25;25.06;99952.25;4995247;28;882;-63
2023/08/12 11:57:36;;;;;;;;;;;;;;;35.50;25.08;99963.28;4995277;28;893;-62
2023/08/12 12:00:08;;;;;;;;;;;;;;;35.10;25.58;99955.16;4995217;28;917;-61
2023/08/12 12:02:45;;;;;;;;;;;;;;;35.14;25.74;99956.38;4995633;28;932;-61
2023/08/12 12:05:12;;;;;;;;;;;;;;;35.32;25.96;99957.34;4995028;28;827;-60
2023/08/12 12:07:39;;;;;;;;;;;;;;;35.98;24.72;99954.81;4994918;28;1959;-61
2023/08/12 12:10:07;;;;;;;;;;;;;;;36.05;24.54;99938.91;4994805;28;919;-61
2023/08/12 12:12:35;;;;;;;;;;;;;;;36.13;25.09;99951.16;4994965;28;844;-62
2023/08/12 12:15:03;;;;;;;;;;;;;;;34.69;26.14;99937.66;4994788;28;862;-64
2023/08/12 12:17:30;;;;;;;;;;;;;;;33.86;27.17;99938.75;4994823;28;837;-64
2023/08/12 12:19:57;;;;;;;;;;;;;;;32.69;28.45;99946.81;4994889;28;799;-67
2023/08/12 12:22:32;;;;;;;;;;;;;;;31.85;30.00;99963.56;4994680;28;787;-66
2023/08/12 12:25:00;;;;;;;;;;;;;;;31.34;30.71;99970.16;4995087;28;882;-68
2023/08/12 12:27:27;;;;;;;;;;;;;;;30.82;34.43;99960.81;4994810;28;1886;-67
2023/08/12 12:29:54;;;;;;;;;;;;;;;30.11;39.23;99961.97;4994793;28;856;-69
2023/08/12 12:32:21;;;;;;;;;;;;;;;29.65;41.86;99958.78;4994765;28;886;-65
2023/08/12 12:34:48;;;;;;;;;;;;;;;31.53;39.52;99953.75;4995054;28;803;-65
2023/08/12 12:37:14;;;;;;;;;;;;;;;33.52;36.80;99951.09;4993528;28;878;-66
2023/08/12 12:39:42;;;;;;;;;;;;;;;33.64;36.31;99952.38;4994796;28;828;-68
2023/08/12 12:42:10;;;;;;;;;;;;;;;32.36;38.06;99954.78;4994631;28;823;-65
2023/08/12 12:44:37;;;;;;;;;;;;;;;31.20;40.02;99942.88;4994540;28;878;-66
2023/08/12 12:47:04;;;;;;;;;;;;;;;30.40;41.82;99939.59;4994498;28;1894;-67
2023/08/12 12:49:31;;;;;;;;;;;;;;;30.00;43.05;99928.66;4994010;28;1275;-66
2023/08/12 12:51:58;;;;;;;;;;;;;;;31.20;41.31;99922.91;4994235;28;854;-69
2023/08/12 12:54:25;;;;;;;;;;;;;;;33.26;37.18;99923.38;4994240;28;827;-67
2023/08/12 12:56:52;;;;;;;;;;;;;;;34.70;34.90;99924.09;4994191;28;802;-66
2023/08/12 12:59:21;;;;;;;;;;;;;;;35.27;33.05;99926.72;4993814;28;1077;-65
2023/08/12 13:01:48;;;;;;;;;;;;;;;35.70;31.98;99933.59;4994075;28;859;-66
2023/08/12 13:04:14;;;;;;;;;;;;;;;34.64;33.54;99924.25;4994118;28;869;-66
2023/08/12 13:06:41;;;;;;;;;;;;;;;32.97;35.69;99923.28;4994025;28;835;-65
2023/08/12 13:09:08;;;;;;;;;;;;;;;31.83;37.14;99929.06;4994018;28;1906;-64
2023/08/12 13:11:35;;;;;;;;;;;;;;;31.47;37.73;99935.97;4993824;28;866;-65
2023/08/12 13:14:02;;;;;;;;;;;;;;;31.94;38.00;99925.97;4993727;28;869;-66
2023/08/12 13:16:30;;;;;;;;;;;;;;;33.73;35.08;99908.09;4993858;28;926;-66
2023/08/12 13:18:58;;;;;;;;;;;;;;;33.58;34.42;99910.84;4992553;28;1172;-66
2023/08/12 13:21:25;;;;;;;;;;;;;;;32.48;35.71;99906.72;4993662;28;838;-68
2023/08/12 13:23:52;;;;;;;;;;;;;;;32.77;35.42;99904.75;4993631;28;850;-66
2023/08/12 13:26:19;;;;;;;;;;;;;;;33.26;34.16;99914.78;4993841;28;822;-65
2023/08/12 13:28:46;;;;;;;;;;;;;;;34.16;32.78;99916.03;4993425;28;1890;-64
2023/08/12 13:31:12;;;;;;;;;;;;;;;34.19;31.95;99919.88;4992248;28;1300;-66
2023/08/12 13:33:39;;;;;;;;;;;;;;;32.87;34.06;99925.09;4993358;28;847;-65
2023/08/12 13:36:06;;;;;;;;;;;;;;;31.72;35.33;99927.97;4993372;28;857;-64
2023/08/12 13:38:32;;;;;;;;;;;;;;;30.95;36.63;99937.28;4993288;28;1004;-66
2023/08/12 13:40:59;;;;;;;;;;;;;;;31.01;37.16;99934.38;4993420;28;834;-66
2023/08/12 13:43:26;;;;;;;;;;;;;;;31.23;36.96;99930.38;4993222;28;858;-65
2023/08/12 13:45:52;;;;;;;;;;;;;;;30.74;37.63;99934.97;4993262;28;873;-65
2023/08/12 13:48:19;;;;;;;;;;;;;;;30.39;37.94;99935.22;4993220;28;1935;-65
2023/08/12 13:50:49;;;;;;;;;;;;;;;30.19;38.54;99934.38;4992985;28;1254;-65
2023/08/12 13:53:16;;;;;;;;;;;;;;;30.05;38.82;99930.66;4993161;28;858;-66
2023/08/12 13:55:42;;;;;;;;;;;;;;;30.19;38.88;99934.38;4993091;28;830;-65
2023/08/12 13:58:08;;;;;;;;;;;;;;;30.51;38.47;99930.91;4993107;28;826;-67
2023/08/12 14:00:35;;;;;;;;;;;;;;;30.88;37.71;99927.28;4993008;28;869;-66
2023/08/12 14:03:02;;;;;;;;;;;;;;;32.83;35.57;99924.66;4992947;28;874;-66
2023/08/12 14:05:29;;;;;;;;;;;;;;;32.83;34.43;99930.38;4992946;28;847;-67
2023/08/12 14:07:55;;;;;;;;;;;;;;;31.94;35.63;99923.13;4992699;28;1942;-66
2023/08/12 14:10:22;;;;;;;;;;;;;;;31.16;36.71;99928.16;4992898;28;830;-65
2023/08/12 14:12:49;;;;;;;;;;;;;;;30.52;37.04;99927.50;4992728;28;869;-67
2023/08/12 14:15:17;;;;;;;;;;;;;;;30.05;38.63;99927.81;4992763;28;832;-66
2023/08/12 14:17:44;;;;;;;;;;;;;;;29.56;39.38;99932.75;4992781;28;821;-66
2023/08/12 14:20:11;;;;;;;;;;;;;;;29.21;39.73;99926.56;4992767;28;957;-67
2023/08/12 14:22:38;;;;;;;;;;;;;;;28.96;40.26;99930.63;4992696;28;910;-66
2023/08/12 14:25:05;;;;;;;;;;;;;;;28.83;41.03;99920.63;4992698;28;807;-66
2023/08/12 14:27:32;;;;;;;;;;;;;;;28.97;41.21;99913.00;4992558;28;1951;-66
2023/08/12 14:29:59;;;;;;;;;;;;;;;29.76;40.30;99920.13;4992491;28;818;-66
2023/08/12 14:32:26;;;;;;;;;;;;;;;30.68;38.33;99914.34;4992624;28;862;-66
2023/08/12 14:34:52;;;;;;;;;;;;;;;31.17;36.40;99913.31;4992738;28;940;-66
2023/08/12 14:37:19;;;;;;;;;;;;;;;31.50;35.64;99909.16;4992637;28;901;-66
2023/08/12 14:39:46;;;;;;;;;;;;;;;31.74;35.51;99907.41;4992682;28;835;-67
2023/08/12 14:42:13;;;;;;;;;;;;;;;31.85;35.07;99901.47;4992404;28;862;-71
2023/08/12 14:44:40;;;;;;;;;;;;;;;31.67;34.81;99910.94;4992592;28;843;-66
2023/08/12 14:47:06;;;;;;;;;;;;;;;31.48;34.95;99914.63;4992611;28;1965;-65
2023/08/12 14:49:32;;;;;;;;;;;;;;;31.00;35.72;99893.63;4992304;28;1220;-65
2023/08/12 14:51:59;;;;;;;;;;;;;;;30.88;35.94;99915.88;4992528;28;878;-65
2023/08/12 14:54:26;;;;;;;;;;;;;;;30.68;36.28;99914.34;4992799;28;831;-66
2023/08/12 14:56:53;;;;;;;;;;;;;;;30.47;36.18;99910.47;4992766;28;803;-66
2023/08/12 14:59:20;;;;;;;;;;;;;;;30.35;36.82;99904.16;4992881;28;1197;-67
2023/08/12 15:01:46;;;;;;;;;;;;;;;30.33;36.87;99907.53;4996600;28;814;-66
2023/08/12 15:04:13;;;;;;;;;;;;;;;30.29;36.98;99907.06;4996484;28;811;-65
2023/08/12 15:06:40;;;;;;;;;;;;;;;30.25;37.05;99908.66;4996172;28;1172;-65
2023/08/12 15:09:09;;;;;;;;;;;;;;;30.27;36.95;99906.81;4996036;28;1960;-66
2023/08/12 15:11:35;;;;;;;;;;;;;;;30.53;36.32;99911.16;4996458;28;1290;-65
2023/08/12 15:14:02;;;;;;;;;;;;;;;30.56;35.89;99903.63;4996286;28;830;-65
2023/08/12 15:16:28;;;;;;;;;;;;;;;30.69;36.04;99912.25;4996237;28;1265;-66
2023/08/12 15:18:54;;;;;;;;;;;;;;;30.58;35.60;99916.03;4996467;28;803;-65
2023/08/12 15:21:20;;;;;;;;;;;;;;;30.41;36.02;99921.19;4996100;28;819;-65
2023/08/12 15:23:47;;;;;;;;;;;;;;;30.68;35.98;99920.03;4995739;28;831;-65
2023/08/12 15:26:14;;;;;;;;;;;;;;;31.02;34.99;99921.63;4995900;28;854;-65
2023/08/12 15:28:40;;;;;;;;;;;;;;;31.51;33.91;99910.69;4995583;28;1940;-66
2023/08/12 15:31:07;;;;;;;;;;;;;;;31.95;32.91;99916.09;4995759;28;1042;-65
2023/08/12 15:33:35;;;;;;;;;;;;;;;31.77;33.17;99914.13;4995723;28;874;-66
2023/08/12 15:36:01;;;;;;;;;;;;;;;31.12;33.74;99922.75;4995955;28;810;-65
2023/08/12 15:38:28;;;;;;;;;;;;;;;30.79;34.62;99927.66;4995629;28;835;-65
2023/08/12 15:40:55;;;;;;;;;;;;;;;30.69;34.85;99927.28;4995397;28;847;-65
2023/08/12 15:43:24;;;;;;;;;;;;;;;30.47;35.17;99922.66;4995519;28;827;-65
2023/08/12 15:45:51;;;;;;;;;;;;;;;30.27;35.83;99929.63;4995430;28;834;-65
2023/08/12 15:48:17;;;;;;;;;;;;;;;29.79;36.07;99936.94;4995724;28;1945;-65
2023/08/12 15:50:44;;;;;;;;;;;;;;;29.18;36.03;99932.53;4995208;28;1278;-64
2023/08/12 15:53:11;;;;;;;;;;;;;;;28.70;37.18;99929.75;4995367;28;909;-66
2023/08/12 15:55:38;;;;;;;;;;;;;;;28.42;37.77;99934.78;4995239;28;847;-65
2023/08/12 15:58:05;;;;;;;;;;;;;;;28.26;37.73;99937.16;4995211;28;830;-64
2023/08/12 16:00:32;;;;;;;;;;;;;;;28.17;38.07;99933.88;4995208;28;873;-65
2023/08/12 16:15:10;;;;;;;;;;;;;;;27.75;38.51;99945.03;4995197;28;626;-66
2023/08/12 16:17:37;;;;;;;;;;;;;;;27.87;37.30;99952.28;4995129;28;839;-64
2023/08/12 16:20:04;;;;;;;;;;;;;;;27.77;36.93;99945.28;4994916;28;858;-63
2023/08/12 16:22:31;;;;;;;;;;;;;;;27.53;37.64;99953.59;4994747;28;905;-64
2023/08/12 16:24:57;;;;;;;;;;;;;;;27.31;37.50;99951.53;4994799;28;818;-64
2023/08/12 16:27:24;;;;;;;;;;;;;;;26.98;37.16;99959.47;4994522;28;1955;-64
2023/08/12 16:29:51;;;;;;;;;;;;;;;26.66;37.91;99967.41;4994953;28;822;-65
2023/08/12 16:32:18;;;;;;;;;;;;;;;26.42;38.08;99968.56;4994578;28;877;-64
2023/08/12 16:34:45;;;;;;;;;;;;;;;26.25;38.73;99971.34;4994511;28;886;-64
2023/08/12 16:37:11;;;;;;;;;;;;;;;26.05;38.73;99977.13;4994685;28;1013;-64
2023/08/12 16:39:38;;;;;;;;;;;;;;;25.89;39.36;99980.66;4994404;28;858;-64
2023/08/12 16:42:05;;;;;;;;;;;;;;;25.77;39.32;99980.53;4994743;28;862;-65
2023/08/12 16:44:32;;;;;;;;;;;;;;;25.65;39.77;99988.19;4994342;28;851;-65
2023/08/12 16:46:58;;;;;;;;;;;;;;;25.53;40.09;99980.13;4994381;28;1957;-65
2023/08/12 16:49:25;;;;;;;;;;;;;;;25.41;40.23;99990.56;4994123;28;1263;-65
2023/08/12 16:51:52;;;;;;;;;;;;;;;25.32;40.54;100002.06;4994227;28;853;-65
2023/08/12 16:54:19;;;;;;;;;;;;;;;25.17;41.19;99999.31;4994400;28;795;-66
2023/08/12 16:56:46;;;;;;;;;;;;;;;25.04;41.55;99991.97;4994133;28;855;-64
2023/08/12 16:59:13;;;;;;;;;;;;;;;24.89;42.18;99996.97;4994080;28;852;-64
2023/08/12 17:01:40;;;;;;;;;;;;;;;24.72;42.75;99999.59;4994047;28;843;-64
2023/08/12 17:04:11;;;;;;;;;;;;;;;24.57;43.42;99993.25;4994123;28;867;-65
2023/08/12 17:06:41;;;;;;;;;;;;;;;24.41;43.76;100003.03;4993938;28;854;-64
2023/08/12 17:09:08;;;;;;;;;;;;;;;24.28;44.54;100006.22;4992531;28;1903;-65
2023/08/12 17:11:35;;;;;;;;;;;;;;;24.13;45.30;100003.47;4993854;28;866;-65
2023/08/12 17:14:02;;;;;;;;;;;;;;;23.99;45.72;100005.06;4993743;28;831;-65
2023/08/12 17:16:29;;;;;;;;;;;;;;;23.88;46.20;100010.53;4993680;28;838;-67
2023/08/12 17:18:56;;;;;;;;;;;;;;;23.77;46.94;100013.97;4993443;28;898;-68
2023/08/12 17:21:23;;;;;;;;;;;;;;;23.67;47.32;100012.50;4993423;28;901;-67
2023/08/12 17:23:49;;;;;;;;;;;;;;;23.52;48.03;100014.56;4992896;28;869;-69
2023/08/12 17:26:17;;;;;;;;;;;;;;;23.37;48.90;100020.19;4993338;28;799;-67
2023/08/12 17:28:42;;;;;;;;;;;;;;;23.19;49.83;100026.78;4993341;28;1935;-68
2023/08/12 17:31:11;;;;;;;;;;;;;;;23.02;50.71;100021.63;4993418;28;901;-67
2023/08/12 17:33:38;;;;;;;;;;;;;;;22.88;51.07;100027.97;4993200;28;826;-71
2023/08/12 17:36:05;;;;;;;;;;;;;;;22.76;51.76;100035.41;4993107;28;831;-69
2023/08/12 17:38:32;;;;;;;;;;;;;;;22.65;52.65;100037.25;4993231;28;886;-70
2023/08/12 17:40:59;;;;;;;;;;;;;;;22.52;53.78;100046.72;4992971;28;834;-68
2023/08/12 17:43:25;;;;;;;;;;;;;;;22.37;54.46;100045.88;4993058;28;894;-69
2023/08/12 18:51:02;;;;;;;;;;;;;;;20.05;95.23;100080.19;5028774;27;3405209;-63
2023/08/12 18:53:29;;;;;;;;;;;;;;;20.10;96.12;100083.19;5150751;27;850;-64
2023/08/12 18:55:56;;;;;;;;;;;;;;;20.11;97.34;100079.13;5150692;27;897;-63
2023/08/12 18:58:23;;;;;;;;;;;;;;;20.12;98.41;100083.50;5150534;27;1968;-64
2023/08/12 19:00:50;;;;;;;;;;;;;;;20.12;99.68;100074.28;5150509;27;960;-63
2023/08/12 19:03:17;;;;;;;;;;;;;;;20.10;100.00;100076.75;5150599;27;826;-65
2023/08/12 19:05:45;;;;;;;;;;;;;;;20.22;100.00;100072.28;5150737;27;898;-64
2023/08/12 19:08:12;;;;;;;;;;;;;;;20.35;100.00;100075.75;5150615;27;846;-64
2023/08/12 19:10:44;;;;;;;;;;;;;;;20.33;100.00;100078.25;5150196;27;957;-63
2023/08/12 19:13:10;;;;;;;;;;;;;;;20.25;100.00;100077.78;5150393;27;917;-64
2023/08/12 19:15:37;;;;;;;;;;;;;;;20.26;100.00;100075.75;5150388;27;878;-63
2023/08/12 19:18:04;;;;;;;;;;;;;;;20.26;100.00;100078.56;5150547;27;901;-63
2023/08/12 19:20:31;;;;;;;;;;;;;;;20.17;100.00;100074.47;5150102;27;1948;-63
2023/08/12 19:22:59;;;;;;;;;;;;;;;20.01;100.00;100079.53;5148808;27;1284;-63
2023/08/12 19:25:26;;;;;;;;;;;;;;;19.95;100.00;100087.75;5150046;27;877;-63
2023/08/12 19:27:53;;;;;;;;;;;;;;;19.99;100.00;100085.59;5150043;27;819;-64
2023/08/12 19:30:20;;;;;;;;;;;;;;;19.98;100.00;100084.81;5150029;27;862;-65
2023/08/12 19:32:48;;;;;;;;;;;;;;;19.89;100.00;100078.41;5149973;27;889;-64
2023/08/12 19:35:15;;;;;;;;;;;;;;;19.79;100.00;100083.19;5149901;27;862;-63
2023/08/12 19:37:43;;;;;;;;;;;;;;;19.70;100.00;100089.53;5149816;27;835;-64
2023/08/12 19:40:10;;;;;;;;;;;;;;;19.59;100.00;100080.72;5149664;27;1015;-63
2023/08/12 19:42:37;;;;;;;;;;;;;;;19.52;100.00;100080.97;5150058;27;850;-63
2023/08/12 19:45:03;;;;;;;;;;;;;;;19.46;100.00;100085.59;5149640;27;905;-63
2023/08/12 19:47:30;;;;;;;;;;;;;;;19.39;100.00;100089.44;5149654;27;851;-63
2023/08/12 19:49:57;;;;;;;;;;;;;;;19.35;100.00;100094.38;5147656;27;1885;-65
2023/08/12 19:52:24;;;;;;;;;;;;;;;19.28;100.00;100092.63;5135566;27;818;-65
2023/08/12 19:54:50;;;;;;;;;;;;;;;19.26;100.00;100088.72;5135742;27;834;-64
2023/08/12 19:57:17;;;;;;;;;;;;;;;19.22;100.00;100096.47;5135739;27;803;-64
2023/08/12 19:59:44;;;;;;;;;;;;;;;19.15;100.00;100089.13;5135563;27;814;-65
2023/08/12 20:02:12;;;;;;;;;;;;;;;19.14;100.00;100088.34;5135637;27;815;-64
2023/08/12 20:04:39;;;;;;;;;;;;;;;19.18;100.00;100083.38;5135444;27;887;-64
2023/08/12 20:07:07;;;;;;;;;;;;;;;19.24;100.00;100080.78;5135550;27;866;-63
2023/08/12 20:09:34;;;;;;;;;;;;;;;19.30;100.00;100080.97;5135222;27;1913;-63
2023/08/12 20:12:00;;;;;;;;;;;;;;;19.30;100.00;100086.59;5135476;27;874;-63
2023/08/12 20:14:27;;;;;;;;;;;;;;;19.23;100.00;100084.06;5135268;27;810;-64
2023/08/12 20:16:54;;;;;;;;;;;;;;;19.26;100.00;100086.69;5135535;27;826;-64
2023/08/12 20:19:21;;;;;;;;;;;;;;;19.20;100.00;100085.72;5135363;27;874;-63
2023/08/12 20:21:48;;;;;;;;;;;;;;;19.29;100.00;100082.22;5135115;27;890;-62
2023/08/12 20:24:15;;;;;;;;;;;;;;;19.35;100.00;100083.97;5135114;27;896;-64
2023/08/12 20:26:42;;;;;;;;;;;;;;;19.34;100.00;100090.81;5135423;27;831;-63
2023/08/12 20:29:08;;;;;;;;;;;;;;;19.31;100.00;100080.53;5135013;27;1905;-63
2023/08/12 20:31:35;;;;;;;;;;;;;;;19.34;100.00;100074.00;5135226;27;865;-64
2023/08/12 20:34:02;;;;;;;;;;;;;;;19.37;100.00;100078.72;5123370;27;916;-63
2023/08/12 20:36:28;;;;;;;;;;;;;;;19.36;100.00;100068.72;5114368;28;815;-63
2023/08/12 20:38:55;;;;;;;;;;;;;;;19.31;100.00;100080.53;5114505;28;823;-63
2023/08/12 20:41:22;;;;;;;;;;;;;;;19.25;100.00;100073.16;5114260;28;818;-63
2023/08/12 20:43:49;;;;;;;;;;;;;;;19.27;100.00;100071.47;5114412;28;834;-64
2023/08/12 20:46:15;;;;;;;;;;;;;;;19.27;100.00;100073.50;5114235;28;838;-63
2023/08/12 20:48:42;;;;;;;;;;;;;;;19.27;100.00;100065.88;5113962;28;1889;-62
2023/08/12 20:51:08;;;;;;;;;;;;;;;19.30;100.00;100066.97;5114064;27;831;-62
2023/08/12 20:53:36;;;;;;;;;;;;;;;19.28;100.00;100072.25;5114100;28;876;-63
2023/08/12 20:56:03;;;;;;;;;;;;;;;19.27;100.00;100074.28;5113961;28;920;-63
2023/08/12 20:58:29;;;;;;;;;;;;;;;19.24;100.00;100080.00;5113890;28;862;-63
2023/08/12 21:00:56;;;;;;;;;;;;;;;19.12;100.00;100078.81;5113857;28;856;-64
2023/08/12 21:03:23;;;;;;;;;;;;;;;18.96;100.00;100082.56;5112898;28;846;-64
2023/08/12 21:05:50;;;;;;;;;;;;;;;19.02;100.00;100069.56;5113703;28;819;-65
2023/08/12 21:08:17;;;;;;;;;;;;;;;19.08;100.00;100075.38;5113686;28;1922;-64
2023/08/12 21:10:50;;;;;;;;;;;;;;;19.08;100.00;100075.38;5113709;28;909;-63
2023/08/12 21:13:16;;;;;;;;;;;;;;;19.13;100.00;100071.97;5113627;28;866;-64
2023/08/12 21:15:43;;;;;;;;;;;;;;;19.15;100.00;100070.28;5113644;28;799;-63
2023/08/12 21:18:10;;;;;;;;;;;;;;;19.06;100.00;100066.63;5113535;28;807;-63
2023/08/12 21:20:39;;;;;;;;;;;;;;;18.95;100.00;100067.78;5113469;28;903;-63
2023/08/12 21:23:05;;;;;;;;;;;;;;;18.80;100.00;100077.13;5113399;28;835;-62
2023/08/12 21:25:32;;;;;;;;;;;;;;;18.70;100.00;100082.63;5113410;28;867;-63
2023/08/12 21:27:59;;;;;;;;;;;;;;;18.62;100.00;100074.91;5113268;28;815;-65
2023/08/12 21:30:27;;;;;;;;;;;;;;;18.57;100.00;100074.25;5113230;28;1942;-64
2023/08/12 21:32:53;;;;;;;;;;;;;;;18.73;100.00;100078.13;5113281;28;839;-62
2023/08/12 21:35:20;;;;;;;;;;;;;;;18.83;100.00;100073.44;5113160;28;816;-63
2023/08/12 21:37:47;;;;;;;;;;;;;;;18.83;100.00;100079.03;5113048;28;835;-64
2023/08/12 21:40:14;;;;;;;;;;;;;;;18.89;100.00;100078.00;5113047;28;917;-65
2023/08/12 21:42:41;;;;;;;;;;;;;;;18.92;100.00;100081.91;5113129;28;866;-63
2023/08/12 21:45:09;;;;;;;;;;;;;;;18.83;100.00;100081.84;5112999;28;831;-63
2023/08/12 21:47:35;;;;;;;;;;;;;;;18.72;100.00;100082.94;5113031;27;909;-63
2023/08/12 21:50:02;;;;;;;;;;;;;;;18.64;100.00;100078.81;5112596;28;1945;-64
2023/08/12 21:52:29;;;;;;;;;;;;;;;18.60;100.00;100080.19;5113135;28;819;-63
2023/08/12 21:54:55;;;;;;;;;;;;;;;18.66;100.00;100073.56;5113004;28;831;-63
2023/08/12 21:57:23;;;;;;;;;;;;;;;18.75;100.00;100073.66;5112849;28;871;-63
2023/08/12 21:59:50;;;;;;;;;;;;;;;18.71;100.00;100083.41;5112697;28;926;-63
2023/08/12 22:02:26;;;;;;;;;;;;;;;18.64;100.00;100078.06;5112719;28;890;-63
2023/08/12 22:04:54;;;;;;;;;;;;;;;18.64;100.00;100072.44;5112715;28;882;-63
2023/08/12 22:07:21;;;;;;;;;;;;;;;18.70;100.00;100070.66;5112590;28;878;-63
2023/08/12 22:09:47;;;;;;;;;;;;;;;18.79;100.00;100067.19;5112490;28;1914;-63
2023/08/12 22:12:15;;;;;;;;;;;;;;;18.86;100.00;100066.91;5112851;28;846;-64
2023/08/12 22:14:45;;;;;;;;;;;;;;;18.98;100.00;100061.28;5112383;28;834;-63
2023/08/12 22:17:12;;;;;;;;;;;;;;;19.07;100.00;100065.38;5112406;28;940;-63
2023/08/12 22:19:39;;;;;;;;;;;;;;;19.10;100.00;100059.66;5112542;28;819;-64
2023/08/12 22:22:07;;;;;;;;;;;;;;;19.07;100.00;100056.97;5112297;28;903;-63
2023/08/12 22:24:33;;;;;;;;;;;;;;;19.03;100.00;100054.31;5112699;28;902;-64
2023/08/12 22:27:00;;;;;;;;;;;;;;;18.97;100.00;100051.31;5112357;28;835;-62
2023/08/12 22:29:27;;;;;;;;;;;;;;;18.91;100.00;100050.31;5112320;28;1948;-62
2023/08/12 22:31:53;;;;;;;;;;;;;;;18.89;100.00;100038.81;5112336;28;843;-62
2023/08/12 22:34:21;;;;;;;;;;;;;;;18.90;100.00;100037.56;5111081;28;1506;-63
2023/08/12 22:36:47;;;;;;;;;;;;;;;18.88;100.00;100033.66;5112204;28;628;-63
2023/08/12 22:39:14;;;;;;;;;;;;;;;18.86;100.00;100039.72;5112220;28;892;-63
2023/08/12 22:41:41;;;;;;;;;;;;;;;18.88;100.00;100039.25;5112247;28;838;-62
2023/08/12 22:44:07;;;;;;;;;;;;;;;18.83;100.00;100032.22;5112222;28;858;-63
2023/08/12 22:46:34;;;;;;;;;;;;;;;18.78;100.00;100021.59;5112119;28;811;-62
2023/08/12 22:49:02;;;;;;;;;;;;;;;18.73;100.00;100019.34;5111902;28;1877;-64
2023/08/12 22:51:28;;;;;;;;;;;;;;;18.74;100.00;100024.50;5112433;28;843;-63
2023/08/12 22:53:57;;;;;;;;;;;;;;;18.73;100.00;100022.94;5111053;28;1299;-64
2023/08/12 22:56:25;;;;;;;;;;;;;;;18.74;100.00;100020.91;5112117;28;918;-64
2023/08/12 22:58:52;;;;;;;;;;;;;;;18.76;100.00;100018.44;5112126;28;905;-64
2023/08/12 23:01:19;;;;;;;;;;;;;;;18.85;100.00;100020.56;5112049;28;898;-64
2023/08/12 23:03:46;;;;;;;;;;;;;;;18.93;100.00;100013.47;5112053;28;874;-64
2023/08/12 23:06:12;;;;;;;;;;;;;;;19.07;100.00;100017.75;5111887;28;834;-63
2023/08/12 23:08:39;;;;;;;;;;;;;;;19.17;100.00;100025.00;5111905;28;1909;-63
2023/08/12 23:11:06;;;;;;;;;;;;;;;19.21;100.00;100022.84;5112006;28;874;-63
2023/08/12 23:13:33;;;;;;;;;;;;;;;19.22;100.00;100018.03;5110542;28;898;-63
2023/08/12 23:16:00;;;;;;;;;;;;;;;19.24;100.00;100016.31;5111951;28;878;-64
2023/08/12 23:18:26;;;;;;;;;;;;;;;19.29;100.00;100018.56;5111834;28;850;-63
2023/08/12 23:20:52;;;;;;;;;;;;;;;19.31;100.00;100018.88;5111899;28;894;-64
2023/08/12 23:23:20;;;;;;;;;;;;;;;19.29;100.00;100014.97;5111924;28;818;-64
2023/08/12 23:25:47;;;;;;;;;;;;;;;19.32;100.00;100003.63;5112923;28;839;-63
2023/08/12 23:28:14;;;;;;;;;;;;;;;19.36;100.00;100012.66;5114396;28;823;-63
2023/08/12 23:30:40;;;;;;;;;;;;;;;19.40;100.00;100015.34;5115556;28;1890;-63
2023/08/12 23:33:07;;;;;;;;;;;;;;;19.47;100.00;100011.50;5115574;28;811;-63
2023/08/12 23:35:33;;;;;;;;;;;;;;;19.49;100.00;100009.00;5115495;28;1056;-64
2023/08/12 23:38:00;;;;;;;;;;;;;;;19.50;100.00;100014.16;5115471;28;1031;-65
2023/08/12 23:40:28;;;;;;;;;;;;;;;19.58;100.00;100015.44;5115405;28;838;-64
2023/08/12 23:42:55;;;;;;;;;;;;;;;19.62;100.00;100014.53;5115319;28;890;-64
2023/08/12 23:45:22;;;;;;;;;;;;;;;19.69;100.00;100012.22;5115369;28;935;-63
2023/08/12 23:47:49;;;;;;;;;;;;;;;19.72;100.00;100014.13;5115313;28;1001;-64
2023/08/12 23:50:16;;;;;;;;;;;;;;;19.73;100.00;100006.50;5114962;28;1906;-63
2023/08/12 23:52:43;;;;;;;;;;;;;;;19.72;100.00;100010.56;5113950;28;1327;-63
2023/08/12 23:55:09;;;;;;;;;;;;;;;19.65;100.00;100010.78;5115101;28;835;-64
2023/08/12 23:57:36;;;;;;;;;;;;;;;19.62;100.00;100003.31;5115202;28;867;-64
